createdAt,value
2019-01-06T00:02:56.522Z,16.40
2019-01-06T00:09:28.949Z,16.77
2019-01-06T00:15:52.325Z,17.87
2019-01-06T00:22:14.176Z,16.67
2019-01-06T00:28:35.858Z,17.90
2019-01-06T00:34:57.496Z,18.00
2019-01-06T00:41:26.622Z,19.17
2019-01-06T00:47:49.849Z,19.53
2019-01-06T00:54:16.233Z,19.63
2019-01-06T01:00:42.662Z,19.63
2019-01-06T01:07:06.087Z,19.40
2019-01-06T01:13:27.713Z,18.17
2019-01-06T01:19:49.101Z,18.10
2019-01-06T01:26:12.340Z,17.73
2019-01-06T01:32:45.209Z,15.93
2019-01-06T01:39:08.457Z,17.23
2019-01-06T01:45:31.664Z,17.03
2019-01-06T01:52:00.758Z,17.10
2019-01-06T01:58:24.131Z,17.53
2019-01-06T02:05:02.277Z,16.40
2019-01-06T02:11:22.233Z,16.87
2019-01-06T02:17:54.801Z,15.83
2019-01-06T02:24:20.907Z,15.73
2019-01-06T02:30:49.567Z,15.50
2019-01-06T02:37:11.207Z,14.97
2019-01-06T02:43:32.845Z,14.23
2019-01-06T02:49:59.106Z,14.33
2019-01-06T02:56:25.420Z,14.43
2019-01-06T03:02:41.180Z,12.90
2019-01-06T03:09:04.384Z,14.07
2019-01-06T03:15:25.150Z,13.90
2019-01-06T03:21:51.106Z,13.07
2019-01-06T03:28:17.331Z,13.48
2019-01-06T03:34:33.535Z,14.23
2019-01-06T03:41:09.188Z,14.33
2019-01-06T03:47:30.794Z,13.87
2019-01-06T03:53:59.931Z,14.37
2019-01-06T04:00:22.160Z,14.97
2019-01-06T04:06:48.168Z,15.53
2019-01-06T04:13:10.035Z,15.23
2019-01-06T04:19:36.278Z,16.13
2019-01-06T04:25:58.199Z,16.87
2019-01-06T04:32:19.936Z,15.13
2019-01-06T04:38:43.163Z,16.50
2019-01-06T04:45:05.083Z,16.30
2019-01-06T04:51:28.309Z,15.30
2019-01-06T04:57:50.146Z,14.87
2019-01-06T05:04:16.375Z,15.83
2019-01-06T05:10:38.359Z,15.40
2019-01-06T05:17:04.633Z,16.63
2019-01-06T05:23:39.714Z,16.40
2019-01-06T05:30:01.725Z,16.90
2019-01-06T05:36:23.427Z,17.40
2019-01-06T05:42:52.669Z,17.87
2019-01-06T05:49:14.827Z,18.80
2019-01-06T05:55:36.723Z,18.23
2019-01-06T06:01:51.813Z,18.10
2019-01-06T06:08:15.144Z,19.53
2019-01-06T06:14:38.395Z,18.27
2019-01-06T06:21:01.679Z,18.90
2019-01-06T06:27:20.224Z,19.00
2019-01-06T06:33:47.735Z,20.23
2019-01-06T06:40:17.111Z,21.67
2019-01-06T06:46:38.799Z,22.17
2019-01-06T06:52:59.949Z,20.60
2019-01-06T06:59:38.110Z,21.40
2019-01-06T07:05:59.534Z,20.80
2019-01-06T07:12:31.530Z,21.90
2019-01-06T07:18:53.175Z,21.60
2019-01-06T07:25:15.678Z,22.10
2019-01-06T07:31:32.030Z,23.93
2019-01-06T07:38:07.426Z,24.23
2019-01-06T07:44:39.667Z,25.07
2019-01-06T07:51:05.794Z,24.83
2019-01-06T07:57:44.170Z,26.90
2019-01-06T08:04:10.243Z,28.87
2019-01-06T08:10:32.128Z,27.83
2019-01-06T08:16:53.988Z,36.33
2019-01-06T08:23:23.510Z,32.73
2019-01-06T08:29:45.451Z,33.83
2019-01-06T08:36:07.697Z,32.97
2019-01-06T08:42:29.328Z,40.00
2019-01-06T08:49:07.733Z,33.40
2019-01-06T08:55:36.734Z,31.90
2019-01-06T09:02:05.981Z,33.30
2019-01-06T09:08:37.613Z,32.70
2019-01-06T09:15:09.835Z,32.10
2019-01-06T09:21:38.819Z,33.00
2019-01-06T09:28:14.176Z,34.47
2019-01-06T09:34:43.242Z,34.13
2019-01-06T09:41:06.441Z,35.10
2019-01-06T09:47:28.058Z,35.70
2019-01-06T09:54:03.273Z,37.57
2019-01-06T10:00:39.247Z,43.57
2019-01-06T10:07:01.151Z,41.53
2019-01-06T10:13:27.143Z,34.37
2019-01-06T10:19:50.391Z,38.90
2019-01-06T10:26:15.808Z,42.13
2019-01-06T10:32:37.656Z,44.37
2019-01-06T10:39:00.899Z,42.50
2019-01-06T10:45:24.237Z,44.87
2019-01-06T10:51:52.200Z,41.10
2019-01-06T10:58:30.723Z,41.77
2019-01-06T11:04:52.455Z,48.43
2019-01-06T11:11:27.732Z,46.67
2019-01-06T11:17:54.886Z,46.07
2019-01-06T11:24:18.870Z,48.80
2019-01-06T11:30:40.569Z,39.73
2019-01-06T11:37:09.852Z,39.00
2019-01-06T11:43:48.082Z,44.70
2019-01-06T11:50:09.756Z,46.17
2019-01-06T11:56:31.731Z,38.43
2019-01-06T12:02:57.728Z,38.27
2019-01-06T12:09:15.853Z,35.87
2019-01-06T12:15:37.532Z,36.67
2019-01-06T12:21:59.388Z,36.53
2019-01-06T12:28:18.425Z,37.60
2019-01-06T12:34:41.858Z,35.47
2019-01-06T12:41:11.135Z,34.13
2019-01-06T12:47:37.380Z,29.60
2019-01-06T12:54:09.531Z,29.23
2019-01-06T13:00:28.465Z,27.77
2019-01-06T13:07:03.921Z,26.15
2019-01-06T13:13:36.580Z,27.13
2019-01-06T13:19:52.358Z,27.03
2019-01-06T13:26:24.553Z,25.57
2019-01-06T13:32:46.245Z,25.35
2019-01-06T13:39:07.844Z,23.77
2019-01-06T13:45:29.763Z,23.53
2019-01-06T13:51:51.593Z,23.00
2019-01-06T13:58:30.697Z,24.80
2019-01-06T14:05:09.014Z,23.85
2019-01-06T14:11:35.294Z,24.77
2019-01-06T14:18:13.843Z,23.50
2019-01-06T14:24:32.495Z,23.90
2019-01-06T14:30:55.960Z,22.33
2019-01-06T14:37:22.225Z,23.03
2019-01-06T14:43:52.608Z,22.67
2019-01-06T14:50:15.666Z,25.40
2019-01-06T14:56:38.918Z,22.37
2019-01-06T15:02:59.398Z,22.43
2019-01-06T15:09:31.618Z,21.53
2019-01-06T15:15:53.238Z,23.10
2019-01-06T15:22:16.554Z,24.83
2019-01-06T15:28:45.997Z,23.83
2019-01-06T15:35:15.282Z,21.25
2019-01-06T15:41:53.533Z,21.27
2019-01-06T15:48:16.848Z,19.83
2019-01-06T15:54:58.517Z,21.77
2019-01-06T16:01:20.382Z,22.70
2019-01-06T16:07:55.737Z,24.20
2019-01-06T16:14:33.885Z,22.80
2019-01-06T16:21:03.019Z,23.37
2019-01-06T16:27:24.811Z,32.90
2019-01-06T16:34:02.984Z,33.07
2019-01-06T16:40:26.473Z,39.53
2019-01-06T16:47:02.957Z,49.80
2019-01-06T16:53:24.621Z,30.90
2019-01-06T16:59:46.540Z,26.50
2019-01-06T17:06:25.009Z,27.87
2019-01-06T17:12:57.292Z,39.50
2019-01-06T17:19:29.525Z,38.50
2019-01-06T17:25:52.786Z,27.97
2019-01-06T17:32:15.069Z,27.37
2019-01-06T17:38:37.680Z,19.07
2019-01-06T17:45:13.072Z,19.07
2019-01-06T17:51:34.258Z,21.90
2019-01-06T17:57:50.889Z,23.47
2019-01-06T18:04:12.817Z,28.90
2019-01-06T18:10:36.831Z,24.98
2019-01-06T18:16:58.514Z,22.95
2019-01-06T18:23:20.229Z,47.03
2019-01-06T18:29:49.732Z,34.38
2019-01-06T18:36:12.958Z,25.77
2019-01-06T18:42:30.093Z,24.40
2019-01-06T18:48:51.996Z,23.63
2019-01-06T18:55:18.446Z,25.68
2019-01-06T19:01:40.126Z,27.32
2019-01-06T19:08:09.463Z,28.20
2019-01-06T19:14:27.487Z,26.40
2019-01-06T19:21:03.537Z,32.28
2019-01-06T19:27:25.314Z,33.08
2019-01-06T19:33:46.875Z,32.50
2019-01-06T19:40:10.082Z,32.42
2019-01-06T19:46:31.895Z,39.20
2019-01-06T19:52:59.755Z,37.67
2019-01-06T19:59:40.961Z,36.40
2019-01-06T20:06:22.470Z,36.50
2019-01-06T20:12:44.051Z,33.98
2019-01-06T20:19:07.391Z,32.63
2019-01-06T20:25:33.875Z,34.30
2019-01-06T20:32:06.367Z,33.88
2019-01-06T20:38:28.005Z,32.15
2019-01-06T20:44:51.354Z,28.60
2019-01-06T20:51:13.447Z,27.40
2019-01-06T20:57:42.449Z,28.73
2019-01-06T21:04:08.683Z,27.87
2019-01-06T21:10:33.688Z,25.90
2019-01-06T21:16:59.949Z,26.65
2019-01-06T21:23:21.526Z,24.72
2019-01-06T21:29:51.420Z,21.95
2019-01-06T21:36:13.374Z,24.07
2019-01-06T21:42:51.772Z,21.65
2019-01-06T21:49:13.381Z,22.52
2019-01-06T21:55:36.636Z,23.00
2019-01-06T22:02:08.824Z,20.97
2019-01-06T22:08:44.214Z,22.32
2019-01-06T22:15:10.256Z,22.52
2019-01-06T22:21:49.057Z,21.90
2019-01-06T22:28:17.323Z,21.62
2019-01-06T22:34:55.754Z,21.05
2019-01-06T22:41:30.869Z,19.32
2019-01-06T22:47:52.820Z,19.57
2019-01-06T22:54:19.053Z,19.77
2019-01-06T23:00:44.808Z,20.88
2019-01-06T23:07:06.508Z,19.52
2019-01-06T23:13:36.059Z,20.75
2019-01-06T23:19:59.408Z,19.15
2019-01-06T23:26:25.647Z,20.27
2019-01-06T23:33:04.215Z,20.92
2019-01-06T23:39:27.589Z,21.00
2019-01-06T23:45:49.527Z,21.45
2019-01-06T23:52:21.761Z,22.20
2019-01-06T23:58:53.794Z,21.30
